createdAt,value
2023-04-13T00:03:23.205Z,1.70
2023-04-13T00:08:26.137Z,1.84
2023-04-13T00:13:28.957Z,1.94
2023-04-13T00:18:31.839Z,1.98
2023-04-13T00:23:36.535Z,2.08
2023-04-13T00:28:39.297Z,2.17
2023-04-13T00:33:42.491Z,2.17
2023-04-13T00:38:45.454Z,2.27
2023-04-13T00:43:49.602Z,2.39
2023-04-13T00:48:53.265Z,2.43
2023-04-13T00:53:58.246Z,2.51
2023-04-13T00:59:01.088Z,2.65
2023-04-13T01:04:03.917Z,2.71
2023-04-13T01:09:10.702Z,2.82
2023-04-13T01:14:18.129Z,3.05
2023-04-13T01:19:49.952Z,3.33
2023-04-13T01:25:09.469Z,3.51
2023-04-13T01:30:12.809Z,3.60
2023-04-13T01:35:15.883Z,3.72
2023-04-13T01:40:20.926Z,3.90
2023-04-13T01:45:30.865Z,3.94
2023-04-13T01:50:42.003Z,4.05
2023-04-13T01:55:54.074Z,4.26
2023-04-13T02:00:57.405Z,4.42
2023-04-13T02:06:01.871Z,4.57
2023-04-13T02:11:05.268Z,4.72
2023-04-13T02:16:09.597Z,5.00
2023-04-13T02:21:12.490Z,5.22
2023-04-13T02:26:16.640Z,5.52
2023-04-13T02:31:20.841Z,5.88
2023-04-13T02:36:25.273Z,6.13
2023-04-13T02:41:32.570Z,6.31
2023-04-13T02:46:35.434Z,6.41
2023-04-13T02:51:46.615Z,6.38
2023-04-13T02:56:49.672Z,5.99
2023-04-13T03:01:52.777Z,6.40
2023-04-13T03:06:59.376Z,6.63
2023-04-13T03:12:07.799Z,6.69
2023-04-13T03:17:12.823Z,6.90
2023-04-13T03:22:17.786Z,6.83
2023-04-13T03:27:23.432Z,7.36
2023-04-13T03:32:29.482Z,7.70
2023-04-13T03:37:40.698Z,7.65
2023-04-13T03:42:52.072Z,7.92
2023-04-13T03:47:57.283Z,7.86
2023-04-13T03:53:01.548Z,7.86
2023-04-13T03:58:04.711Z,8.14
2023-04-13T04:03:07.742Z,8.36
2023-04-13T04:08:21.242Z,8.55
2023-04-13T04:13:25.673Z,8.55
2023-04-13T04:18:31.802Z,8.47
2023-04-13T04:23:38.303Z,8.47
2023-04-13T04:28:42.244Z,8.58
2023-04-13T04:33:52.160Z,8.63
2023-04-13T04:38:58.543Z,8.76
2023-04-13T04:44:03.813Z,8.70
2023-04-13T04:49:11.880Z,8.60
2023-04-13T04:54:17.408Z,8.83
2023-04-13T04:59:22.404Z,9.11
2023-04-13T05:04:34.360Z,9.17
2023-04-13T05:09:39.347Z,9.02
2023-04-13T05:14:42.881Z,8.53
2023-04-13T05:19:48.371Z,7.90
2023-04-13T05:25:07.249Z,7.45
2023-04-13T05:30:10.267Z,7.16
2023-04-13T05:35:15.448Z,6.89
2023-04-13T05:40:18.861Z,6.61
2023-04-13T05:45:21.943Z,6.38
2023-04-13T05:50:40.184Z,5.83
2023-04-13T05:55:48.026Z,5.52
2023-04-13T06:00:51.610Z,5.25
2023-04-13T06:06:05.111Z,5.17
2023-04-13T06:11:08.389Z,4.83
2023-04-13T06:16:12.572Z,4.73
2023-04-13T06:21:16.151Z,4.74
2023-04-13T06:26:21.524Z,5.01
2023-04-13T06:31:30.734Z,5.20
2023-04-13T06:36:37.988Z,5.12
2023-04-13T06:41:41.276Z,5.53
2023-04-13T06:46:51.657Z,5.94
2023-04-13T06:51:56.564Z,6.23
2023-04-13T06:56:59.398Z,6.67
2023-04-13T07:02:02.414Z,7.31
2023-04-13T07:07:07.572Z,7.98
2023-04-13T07:12:10.310Z,8.21
2023-04-13T07:17:13.643Z,8.36
2023-04-13T07:22:17.106Z,8.31
2023-04-13T07:27:22.262Z,8.21
2023-04-13T07:32:30.875Z,8.32
2023-04-13T07:37:34.948Z,8.24
2023-04-13T07:42:38.373Z,8.50
2023-04-13T07:47:41.685Z,8.80
2023-04-13T07:52:45.562Z,8.95
2023-04-13T07:57:49.489Z,8.75
2023-04-13T08:02:55.223Z,8.30
2023-04-13T08:08:00.169Z,8.31
2023-04-13T08:13:03.093Z,8.60
2023-04-13T08:18:06.880Z,8.53
2023-04-13T08:23:11.956Z,8.41
2023-04-13T08:28:15.467Z,7.90
2023-04-13T08:33:18.882Z,7.37
2023-04-13T08:38:22.174Z,7.31
2023-04-13T08:43:26.301Z,7.53
2023-04-13T08:48:39.001Z,8.19
2023-04-13T08:53:49.774Z,8.37
2023-04-13T08:59:05.514Z,8.50
2023-04-13T09:04:10.870Z,8.25
2023-04-13T09:09:19.375Z,8.40
2023-04-13T09:14:22.480Z,8.27
2023-04-13T09:19:33.793Z,7.79
2023-04-13T09:24:42.652Z,7.34
2023-04-13T09:29:56.699Z,7.07
2023-04-13T09:35:05.087Z,7.20
2023-04-13T09:40:13.517Z,7.47
2023-04-13T09:45:16.812Z,7.46
2023-04-13T09:50:23.179Z,7.58
2023-04-13T09:55:25.929Z,7.55
2023-04-13T10:00:28.585Z,7.55
2023-04-13T10:05:33.191Z,7.58
2023-04-13T10:10:37.201Z,7.64
2023-04-13T10:16:04.071Z,7.61
2023-04-13T10:21:07.587Z,7.37
2023-04-13T10:26:10.773Z,7.33
2023-04-13T10:31:13.642Z,7.96
2023-04-13T10:36:17.044Z,8.46
2023-04-13T10:41:26.716Z,8.59
2023-04-13T10:46:29.728Z,8.77
2023-04-13T10:51:42.326Z,8.97
2023-04-13T10:56:45.382Z,8.46
2023-04-13T11:01:48.144Z,8.14
2023-04-13T11:06:53.458Z,8.27
2023-04-13T11:11:56.619Z,8.26
2023-04-13T11:16:59.427Z,8.09
2023-04-13T11:22:02.559Z,8.17
2023-04-13T11:27:05.937Z,8.31
2023-04-13T11:32:19.242Z,7.88
2023-04-13T11:37:22.141Z,7.50
2023-04-13T11:42:24.805Z,7.33
2023-04-13T11:47:27.572Z,7.11
2023-04-13T11:52:31.129Z,6.66
2023-04-13T11:57:34.006Z,6.33
2023-04-13T12:02:57.524Z,6.34
2023-04-13T12:08:04.468Z,6.52
2023-04-13T12:18:22.252Z,6.71
2023-04-13T12:23:28.168Z,6.60
2023-04-13T12:28:35.998Z,6.39
2023-04-13T12:33:39.523Z,6.21
2023-04-13T12:38:43.093Z,6.01
2023-04-13T12:43:45.891Z,5.89
2023-04-13T12:48:50.784Z,5.82
2023-04-13T12:53:53.461Z,5.70
2023-04-13T12:58:56.604Z,5.51
2023-04-13T13:03:59.422Z,5.43
2023-04-13T13:09:02.394Z,5.24
2023-04-13T13:14:05.371Z,5.16
2023-04-13T13:19:08.835Z,5.09
2023-04-13T13:24:11.565Z,4.88
2023-04-13T13:29:14.360Z,4.63
2023-04-13T13:34:17.141Z,4.40
2023-04-13T13:39:22.067Z,4.24
2023-04-13T13:44:25.392Z,4.03
2023-04-13T13:49:28.804Z,3.79
2023-04-13T13:54:40.719Z,3.57
2023-04-13T13:59:43.455Z,3.37
2023-04-13T14:04:50.176Z,3.10
2023-04-13T14:09:52.917Z,2.84
2023-04-13T14:14:55.857Z,2.59
2023-04-13T14:19:58.697Z,2.38
2023-04-13T14:25:01.348Z,2.12
2023-04-13T14:30:06.266Z,1.95
2023-04-13T14:35:09.195Z,1.82
2023-04-13T14:40:17.441Z,1.73
2023-04-13T14:45:21.508Z,1.71
2023-04-13T14:50:24.566Z,1.61
2023-04-13T14:55:27.929Z,1.60
2023-04-13T15:00:39.757Z,1.90
2023-04-13T15:05:47.665Z,2.21
2023-04-13T15:10:50.563Z,1.92
2023-04-13T15:15:55.146Z,1.69
2023-04-13T15:21:02.359Z,1.47
2023-04-13T15:26:18.679Z,1.23
2023-04-13T15:31:22.659Z,1.11
2023-04-13T15:36:25.451Z,1.05
2023-04-13T15:41:28.461Z,0.92
2023-04-13T15:46:32.977Z,0.89
2023-04-13T15:51:36.100Z,0.95
2023-04-13T15:56:38.833Z,0.91
2023-04-13T16:01:49.469Z,0.88
2023-04-13T16:07:05.058Z,0.91
2023-04-13T16:12:12.741Z,0.87
2023-04-13T16:17:15.955Z,0.90
2023-04-13T16:22:18.726Z,0.81
2023-04-13T16:27:22.023Z,0.92
2023-04-13T16:32:25.157Z,0.94
2023-04-13T16:37:27.979Z,0.82
2023-04-13T16:42:30.856Z,0.69
2023-04-13T16:47:34.023Z,0.75
2023-04-13T16:52:39.086Z,0.71
2023-04-13T16:57:44.969Z,0.59
2023-04-13T17:02:48.408Z,0.47
2023-04-13T17:07:51.582Z,0.54
2023-04-13T17:12:54.599Z,0.62
2023-04-13T17:17:57.528Z,0.62
2023-04-13T17:23:00.401Z,0.60
2023-04-13T17:28:03.079Z,0.55
2023-04-13T17:33:06.149Z,0.52
2023-04-13T17:38:09.129Z,0.44
2023-04-13T17:43:12.326Z,0.46
2023-04-13T17:48:15.498Z,0.47
2023-04-13T17:53:18.356Z,0.43
2023-04-13T17:58:21.138Z,0.37
2023-04-13T18:03:24.305Z,0.40
2023-04-13T18:08:27.419Z,0.38
2023-04-13T18:13:31.764Z,0.36
2023-04-13T18:18:34.588Z,0.27
2023-04-13T18:23:37.296Z,0.24
2023-04-13T18:28:41.327Z,0.19
2023-04-13T18:33:44.921Z,0.11
2023-04-13T18:38:47.668Z,0.12
2023-04-13T18:43:50.696Z,-0.06
2023-04-13T18:48:54.535Z,-0.28
2023-04-13T18:53:57.624Z,-0.39
2023-04-13T18:59:00.612Z,-0.45
2023-04-13T19:04:03.604Z,-0.35
2023-04-13T19:09:06.518Z,-0.36
2023-04-13T19:14:09.230Z,-0.27
2023-04-13T19:19:13.565Z,0.03
2023-04-13T19:24:16.528Z,0.16
2023-04-13T19:29:21.330Z,0.42
2023-04-13T19:34:24.113Z,0.48
2023-04-13T19:39:26.825Z,0.59
2023-04-13T19:44:29.577Z,0.88
2023-04-13T19:49:33.193Z,1.05
2023-04-13T19:54:36.472Z,1.27
2023-04-13T19:59:40.633Z,1.17
2023-04-13T20:04:45.271Z,1.17
2023-04-13T20:09:48.043Z,1.21
2023-04-13T20:14:50.971Z,1.23
2023-04-13T20:19:54.630Z,1.25
2023-04-13T20:24:57.334Z,1.11
2023-04-13T20:30:00.258Z,0.95
2023-04-13T20:35:03.387Z,0.97
2023-04-13T20:40:07.367Z,1.09
2023-04-13T20:45:12.905Z,1.23
2023-04-13T20:50:22.056Z,1.31
2023-04-13T20:55:25.110Z,1.43
2023-04-13T21:00:28.414Z,1.46
2023-04-13T21:05:31.107Z,1.49
2023-04-13T21:10:33.828Z,1.47
2023-04-13T21:15:37.208Z,1.43
2023-04-13T21:20:41.148Z,1.41
2023-04-13T21:25:44.909Z,1.41
2023-04-13T21:30:47.610Z,1.37
2023-04-13T21:35:50.317Z,1.38
2023-04-13T21:40:53.096Z,1.42
2023-04-13T21:45:55.846Z,1.49
2023-04-13T21:50:58.971Z,1.45
2023-04-13T21:56:02.798Z,0.92
2023-04-13T22:01:07.238Z,-0.84
2023-04-13T22:06:11.180Z,-1.75
2023-04-13T22:11:14.142Z,-2.19
2023-04-13T22:16:17.253Z,-2.45
2023-04-13T22:21:20.041Z,-2.62
2023-04-13T22:26:24.524Z,-2.82
2023-04-13T22:31:27.429Z,-2.86
2023-04-13T22:36:30.277Z,-2.92
2023-04-13T22:41:33.296Z,-3.00
2023-04-13T22:46:36.228Z,-3.13
2023-04-13T22:51:40.395Z,-3.25
2023-04-13T22:56:43.086Z,-3.31
2023-04-13T23:01:46.035Z,-3.50
2023-04-13T23:06:50.202Z,-3.46
2023-04-13T23:11:52.980Z,-3.52
2023-04-13T23:16:55.825Z,-3.67
2023-04-13T23:21:58.563Z,-3.70
2023-04-13T23:27:01.306Z,-3.69
2023-04-13T23:32:07.015Z,-3.69
2023-04-13T23:37:10.067Z,-3.76
2023-04-13T23:42:12.930Z,-3.85
2023-04-13T23:47:15.701Z,-3.86
2023-04-13T23:52:19.218Z,-3.92
2023-04-13T23:57:22.806Z,-4.15
